sensor_id;sensor_type;location;lat;lon;timestamp;temperature;humidity
7846;DHT22;3968;51.424;6.788;2022-11-15T00:00:24;10.20;99.90
7846;DHT22;3968;51.424;6.788;2022-11-15T00:02:49;10.20;99.90
7846;DHT22;3968;51.424;6.788;2022-11-15T00:05:15;10.20;99.90
7846;DHT22;3968;51.424;6.788;2022-11-15T00:07:40;10.30;99.90
7846;DHT22;3968;51.424;6.788;2022-11-15T00:10:06;10.30;99.90
7846;DHT22;3968;51.424;6.788;2022-11-15T00:12:32;10.30;99.90
7846;DHT22;3968;51.424;6.788;2022-11-15T00:14:57;10.30;99.90
7846;DHT22;3968;51.424;6.788;2022-11-15T00:17:23;10.30;99.90
7846;DHT22;3968;51.424;6.788;2022-11-15T00:19:49;10.40;99.90
7846;DHT22;3968;51.424;6.788;2022-11-15T00:22:14;10.40;99.90
7846;DHT22;3968;51.424;6.788;2022-11-15T00:24:40;10.40;99.90
7846;DHT22;3968;51.424;6.788;2022-11-15T00:27:06;10.40;99.90
7846;DHT22;3968;51.424;6.788;2022-11-15T00:29:31;10.40;99.90
7846;DHT22;3968;51.424;6.788;2022-11-15T00:31:57;10.40;99.90
7846;DHT22;3968;51.424;6.788;2022-11-15T00:34:22;10.50;99.90
7846;DHT22;3968;51.424;6.788;2022-11-15T00:36:48;10.50;99.90
7846;DHT22;3968;51.424;6.788;2022-11-15T00:39:13;10.50;99.90
7846;DHT22;3968;51.424;6.788;2022-11-15T00:41:39;10.50;99.90
7846;DHT22;3968;51.424;6.788;2022-11-15T00:44:05;10.50;99.90
7846;DHT22;3968;51.424;6.788;2022-11-15T00:46:30;10.50;99.90
7846;DHT22;3968;51.424;6.788;2022-11-15T00:48:56;10.50;99.90
7846;DHT22;3968;51.424;6.788;2022-11-15T00:51:21;10.50;99.90
7846;DHT22;3968;51.424;6.788;2022-11-15T00:53:47;10.50;99.90
7846;DHT22;3968;51.424;6.788;2022-11-15T00:56:13;10.50;99.90
7846;DHT22;3968;51.424;6.788;2022-11-15T00:58:38;10.60;99.90
7846;DHT22;3968;51.424;6.788;2022-11-15T01:01:09;10.60;99.90
7846;DHT22;3968;51.424;6.788;2022-11-15T01:03:36;10.60;99.90
7846;DHT22;3968;51.424;6.788;2022-11-15T01:06:02;10.60;99.90
7846;DHT22;3968;51.424;6.788;2022-11-15T01:08:28;10.60;99.90
7846;DHT22;3968;51.424;6.788;2022-11-15T01:10:53;10.60;99.90
7846;DHT22;3968;51.424;6.788;2022-11-15T01:13:19;10.70;99.90
7846;DHT22;3968;51.424;6.788;2022-11-15T01:15:45;10.60;99.90
7846;DHT22;3968;51.424;6.788;2022-11-15T01:18:10;10.70;99.90
7846;DHT22;3968;51.424;6.788;2022-11-15T01:20:41;10.70;99.90
7846;DHT22;3968;51.424;6.788;2022-11-15T01:23:07;10.70;99.90
7846;DHT22;3968;51.424;6.788;2022-11-15T01:25:32;10.80;99.90
7846;DHT22;3968;51.424;6.788;2022-11-15T01:27:58;10.80;99.90
7846;DHT22;3968;51.424;6.788;2022-11-15T01:30:24;10.80;99.90
7846;DHT22;3968;51.424;6.788;2022-11-15T01:32:49;10.80;99.90
7846;DHT22;3968;51.424;6.788;2022-11-15T01:35:15;10.80;99.90
7846;DHT22;3968;51.424;6.788;2022-11-15T01:37:40;10.80;99.90
7846;DHT22;3968;51.424;6.788;2022-11-15T01:40:06;10.80;99.90
7846;DHT22;3968;51.424;6.788;2022-11-15T01:42:32;10.80;99.90
7846;DHT22;3968;51.424;6.788;2022-11-15T01:44:58;10.90;99.90
7846;DHT22;3968;51.424;6.788;2022-11-15T01:47:28;10.90;99.90
7846;DHT22;3968;51.424;6.788;2022-11-15T01:52:25;10.80;99.90
7846;DHT22;3968;51.424;6.788;2022-11-15T01:55:15;10.90;99.90
7846;DHT22;3968;51.424;6.788;2022-11-15T01:57:41;10.80;99.90
7846;DHT22;3968;51.424;6.788;2022-11-15T02:00:08;10.80;99.90
7846;DHT22;3968;51.424;6.788;2022-11-15T02:02:36;10.80;99.90
7846;DHT22;3968;51.424;6.788;2022-11-15T02:05:02;10.80;99.90
7846;DHT22;3968;51.424;6.788;2022-11-15T02:07:29;10.90;99.90
7846;DHT22;3968;51.424;6.788;2022-11-15T02:09:58;10.90;99.90
7846;DHT22;3968;51.424;6.788;2022-11-15T02:12:25;10.90;99.90
7846;DHT22;3968;51.424;6.788;2022-11-15T02:14:53;10.90;99.90
7846;DHT22;3968;51.424;6.788;2022-11-15T02:20:30;10.90;99.90
7846;DHT22;3968;51.424;6.788;2022-11-15T02:31:33;11.00;99.90
7846;DHT22;3968;51.424;6.788;2022-11-15T02:44:41;11.00;99.90
7846;DHT22;3968;51.424;6.788;2022-11-15T02:47:13;11.10;99.90
7846;DHT22;3968;51.424;6.788;2022-11-15T02:50:09;11.00;99.90
7846;DHT22;3968;51.424;6.788;2022-11-15T02:52:35;11.10;99.90
7846;DHT22;3968;51.424;6.788;2022-11-15T02:55:01;11.10;99.90
7846;DHT22;3968;51.424;6.788;2022-11-15T02:57:39;11.10;99.90
7846;DHT22;3968;51.424;6.788;2022-11-15T03:00:14;11.10;99.90
7846;DHT22;3968;51.424;6.788;2022-11-15T03:03:10;11.20;99.90
7846;DHT22;3968;51.424;6.788;2022-11-15T03:05:47;11.20;99.90
7846;DHT22;3968;51.424;6.788;2022-11-15T03:08:31;11.20;99.90
7846;DHT22;3968;51.424;6.788;2022-11-15T03:11:07;11.10;99.90
7846;DHT22;3968;51.424;6.788;2022-11-15T03:16:33;11.20;99.90
7846;DHT22;3968;51.424;6.788;2022-11-15T03:21:33;11.20;99.90
7846;DHT22;3968;51.424;6.788;2022-11-15T03:24:03;11.20;99.90
7846;DHT22;3968;51.424;6.788;2022-11-15T03:26:29;11.20;99.90
7846;DHT22;3968;51.424;6.788;2022-11-15T03:29:07;11.30;99.90
7846;DHT22;3968;51.424;6.788;2022-11-15T03:31:38;11.30;99.90
7846;DHT22;3968;51.424;6.788;2022-11-15T03:36:59;11.30;99.90
7846;DHT22;3968;51.424;6.788;2022-11-15T03:39:26;11.30;99.90
7846;DHT22;3968;51.424;6.788;2022-11-15T03:50:09;11.40;99.90
7846;DHT22;3968;51.424;6.788;2022-11-15T03:52:36;11.40;99.90
7846;DHT22;3968;51.424;6.788;2022-11-15T03:55:04;11.40;99.90
7846;DHT22;3968;51.424;6.788;2022-11-15T03:57:30;11.50;99.90
7846;DHT22;3968;51.424;6.788;2022-11-15T03:59:56;11.50;99.90
7846;DHT22;3968;51.424;6.788;2022-11-15T04:02:21;11.50;99.90
7846;DHT22;3968;51.424;6.788;2022-11-15T04:04:47;11.50;99.90
7846;DHT22;3968;51.424;6.788;2022-11-15T04:07:13;11.50;99.90
7846;DHT22;3968;51.424;6.788;2022-11-15T04:09:38;11.50;99.90
7846;DHT22;3968;51.424;6.788;2022-11-15T04:12:24;11.50;99.90
7846;DHT22;3968;51.424;6.788;2022-11-15T04:14:57;11.50;99.90
7846;DHT22;3968;51.424;6.788;2022-11-15T04:17:41;11.50;99.90
7846;DHT22;3968;51.424;6.788;2022-11-15T04:20:39;11.50;99.90
7846;DHT22;3968;51.424;6.788;2022-11-15T04:23:23;11.60;99.90
7846;DHT22;3968;51.424;6.788;2022-11-15T04:26:25;11.50;99.90
7846;DHT22;3968;51.424;6.788;2022-11-15T04:28:50;11.60;99.90
7846;DHT22;3968;51.424;6.788;2022-11-15T04:31:35;11.50;99.90
7846;DHT22;3968;51.424;6.788;2022-11-15T04:34:00;11.50;99.90
7846;DHT22;3968;51.424;6.788;2022-11-15T04:36:26;11.60;99.90
7846;DHT22;3968;51.424;6.788;2022-11-15T04:39:10;11.60;99.90
7846;DHT22;3968;51.424;6.788;2022-11-15T04:41:35;11.60;99.90
7846;DHT22;3968;51.424;6.788;2022-11-15T04:44:01;11.60;99.90
7846;DHT22;3968;51.424;6.788;2022-11-15T04:46:27;11.60;99.90
7846;DHT22;3968;51.424;6.788;2022-11-15T04:48:53;11.60;99.90
7846;DHT22;3968;51.424;6.788;2022-11-15T04:51:19;11.60;99.90
7846;DHT22;3968;51.424;6.788;2022-11-15T04:53:45;11.70;99.90
7846;DHT22;3968;51.424;6.788;2022-11-15T04:56:11;11.70;99.90
7846;DHT22;3968;51.424;6.788;2022-11-15T04:58:36;11.70;99.90
7846;DHT22;3968;51.424;6.788;2022-11-15T05:01:13;11.70;99.90
7846;DHT22;3968;51.424;6.788;2022-11-15T05:03:42;11.70;99.90
7846;DHT22;3968;51.424;6.788;2022-11-15T05:06:26;11.70;99.90
7846;DHT22;3968;51.424;6.788;2022-11-15T05:08:52;11.70;99.90
7846;DHT22;3968;51.424;6.788;2022-11-15T05:11:18;11.70;99.90
7846;DHT22;3968;51.424;6.788;2022-11-15T05:13:44;11.70;99.90
7846;DHT22;3968;51.424;6.788;2022-11-15T05:16:10;11.80;99.90
7846;DHT22;3968;51.424;6.788;2022-11-15T05:18:35;11.70;99.90
7846;DHT22;3968;51.424;6.788;2022-11-15T05:21:08;11.70;99.90
7846;DHT22;3968;51.424;6.788;2022-11-15T05:23:34;11.70;99.90
7846;DHT22;3968;51.424;6.788;2022-11-15T05:26:01;11.70;99.90
7846;DHT22;3968;51.424;6.788;2022-11-15T05:28:27;11.70;99.90
7846;DHT22;3968;51.424;6.788;2022-11-15T05:30:53;11.70;99.90
7846;DHT22;3968;51.424;6.788;2022-11-15T05:33:19;11.80;99.90
7846;DHT22;3968;51.424;6.788;2022-11-15T05:35:52;11.80;99.90
7846;DHT22;3968;51.424;6.788;2022-11-15T05:38:20;11.70;99.90
7846;DHT22;3968;51.424;6.788;2022-11-15T05:40:45;11.80;99.90
7846;DHT22;3968;51.424;6.788;2022-11-15T05:43:11;11.80;99.90
7846;DHT22;3968;51.424;6.788;2022-11-15T05:45:37;11.80;99.90
7846;DHT22;3968;51.424;6.788;2022-11-15T05:48:06;11.80;99.90
7846;DHT22;3968;51.424;6.788;2022-11-15T05:50:33;11.80;99.90
7846;DHT22;3968;51.424;6.788;2022-11-15T05:53:00;11.70;99.90
7846;DHT22;3968;51.424;6.788;2022-11-15T05:55:26;11.80;99.90
7846;DHT22;3968;51.424;6.788;2022-11-15T05:57:52;11.80;99.90
7846;DHT22;3968;51.424;6.788;2022-11-15T06:00:18;11.70;99.90
7846;DHT22;3968;51.424;6.788;2022-11-15T06:02:44;11.80;99.90
7846;DHT22;3968;51.424;6.788;2022-11-15T06:05:09;11.70;99.90
7846;DHT22;3968;51.424;6.788;2022-11-15T06:07:35;11.80;99.90
7846;DHT22;3968;51.424;6.788;2022-11-15T06:10:00;11.80;99.90
7846;DHT22;3968;51.424;6.788;2022-11-15T06:12:26;11.80;99.90
7846;DHT22;3968;51.424;6.788;2022-11-15T06:14:52;11.80;99.90
7846;DHT22;3968;51.424;6.788;2022-11-15T06:17:17;11.80;99.90
7846;DHT22;3968;51.424;6.788;2022-11-15T06:19:43;11.70;99.90
7846;DHT22;3968;51.424;6.788;2022-11-15T06:22:08;11.70;99.90
7846;DHT22;3968;51.424;6.788;2022-11-15T06:24:35;11.70;99.90
7846;DHT22;3968;51.424;6.788;2022-11-15T06:27:00;11.70;99.90
7846;DHT22;3968;51.424;6.788;2022-11-15T06:29:26;11.80;99.90
7846;DHT22;3968;51.424;6.788;2022-11-15T06:31:51;11.70;99.90
7846;DHT22;3968;51.424;6.788;2022-11-15T06:34:18;11.70;99.90
7846;DHT22;3968;51.424;6.788;2022-11-15T06:36:43;11.70;99.90
7846;DHT22;3968;51.424;6.788;2022-11-15T06:39:09;11.80;99.90
7846;DHT22;3968;51.424;6.788;2022-11-15T06:41:35;11.70;99.90
7846;DHT22;3968;51.424;6.788;2022-11-15T06:44:02;11.80;99.90
7846;DHT22;3968;51.424;6.788;2022-11-15T06:46:28;11.70;99.90
7846;DHT22;3968;51.424;6.788;2022-11-15T06:48:53;11.80;99.90
7846;DHT22;3968;51.424;6.788;2022-11-15T06:51:19;11.80;99.90
7846;DHT22;3968;51.424;6.788;2022-11-15T06:53:45;11.80;99.90
7846;DHT22;3968;51.424;6.788;2022-11-15T06:56:11;11.80;99.90
7846;DHT22;3968;51.424;6.788;2022-11-15T06:58:37;11.70;99.90
7846;DHT22;3968;51.424;6.788;2022-11-15T07:01:08;11.70;99.90
7846;DHT22;3968;51.424;6.788;2022-11-15T07:03:36;11.70;99.90
7846;DHT22;3968;51.424;6.788;2022-11-15T07:06:02;11.70;99.90
7846;DHT22;3968;51.424;6.788;2022-11-15T07:08:28;11.70;99.90
7846;DHT22;3968;51.424;6.788;2022-11-15T07:10:57;11.80;99.90
7846;DHT22;3968;51.424;6.788;2022-11-15T07:13:27;11.80;99.90
7846;DHT22;3968;51.424;6.788;2022-11-15T07:15:53;11.80;99.90
7846;DHT22;3968;51.424;6.788;2022-11-15T07:18:20;11.70;99.90
7846;DHT22;3968;51.424;6.788;2022-11-15T07:20:45;11.80;99.90
7846;DHT22;3968;51.424;6.788;2022-11-15T07:23:11;11.70;99.90
7846;DHT22;3968;51.424;6.788;2022-11-15T07:25:37;11.80;99.90
7846;DHT22;3968;51.424;6.788;2022-11-15T07:28:03;11.80;99.90
7846;DHT22;3968;51.424;6.788;2022-11-15T07:30:29;11.80;99.90
7846;DHT22;3968;51.424;6.788;2022-11-15T07:32:59;11.80;99.90
7846;DHT22;3968;51.424;6.788;2022-11-15T07:35:26;11.80;99.90
7846;DHT22;3968;51.424;6.788;2022-11-15T07:38:00;11.80;99.90
7846;DHT22;3968;51.424;6.788;2022-11-15T07:40:27;11.80;99.90
7846;DHT22;3968;51.424;6.788;2022-11-15T07:43:01;11.90;99.90
7846;DHT22;3968;51.424;6.788;2022-11-15T07:45:28;11.90;99.90
7846;DHT22;3968;51.424;6.788;2022-11-15T07:47:54;11.90;99.90
7846;DHT22;3968;51.424;6.788;2022-11-15T07:50:22;11.90;99.90
7846;DHT22;3968;51.424;6.788;2022-11-15T07:52:47;11.90;99.90
7846;DHT22;3968;51.424;6.788;2022-11-15T07:55:13;11.90;99.90
7846;DHT22;3968;51.424;6.788;2022-11-15T07:57:39;12.00;99.90
7846;DHT22;3968;51.424;6.788;2022-11-15T08:00:05;12.00;99.90
7846;DHT22;3968;51.424;6.788;2022-11-15T08:02:31;12.00;99.90
7846;DHT22;3968;51.424;6.788;2022-11-15T08:04:57;12.00;99.90
7846;DHT22;3968;51.424;6.788;2022-11-15T08:07:23;12.00;99.90
7846;DHT22;3968;51.424;6.788;2022-11-15T08:09:48;12.00;99.90
7846;DHT22;3968;51.424;6.788;2022-11-15T08:12:14;11.90;99.90
7846;DHT22;3968;51.424;6.788;2022-11-15T08:14:40;11.90;99.90
7846;DHT22;3968;51.424;6.788;2022-11-15T08:17:06;11.90;99.90
7846;DHT22;3968;51.424;6.788;2022-11-15T08:19:32;11.80;99.90
7846;DHT22;3968;51.424;6.788;2022-11-15T08:21:58;11.90;99.90
7846;DHT22;3968;51.424;6.788;2022-11-15T08:24:23;11.80;99.90
7846;DHT22;3968;51.424;6.788;2022-11-15T08:26:49;11.90;99.90
7846;DHT22;3968;51.424;6.788;2022-11-15T08:29:14;11.90;99.90
7846;DHT22;3968;51.424;6.788;2022-11-15T08:31:40;11.90;99.90
7846;DHT22;3968;51.424;6.788;2022-11-15T08:34:06;11.80;99.90
7846;DHT22;3968;51.424;6.788;2022-11-15T08:36:32;11.90;99.90
7846;DHT22;3968;51.424;6.788;2022-11-15T08:38:57;11.90;99.90
7846;DHT22;3968;51.424;6.788;2022-11-15T08:41:27;11.90;99.90
7846;DHT22;3968;51.424;6.788;2022-11-15T08:43:53;11.90;99.90
7846;DHT22;3968;51.424;6.788;2022-11-15T08:46:19;11.90;99.90
7846;DHT22;3968;51.424;6.788;2022-11-15T08:48:45;11.90;99.90
7846;DHT22;3968;51.424;6.788;2022-11-15T08:51:10;12.00;99.90
7846;DHT22;3968;51.424;6.788;2022-11-15T08:53:36;12.00;99.90
7846;DHT22;3968;51.424;6.788;2022-11-15T08:56:02;12.00;99.90
7846;DHT22;3968;51.424;6.788;2022-11-15T08:58:28;12.00;99.90
7846;DHT22;3968;51.424;6.788;2022-11-15T09:00:54;12.10;99.90
7846;DHT22;3968;51.424;6.788;2022-11-15T09:03:20;12.10;99.90
7846;DHT22;3968;51.424;6.788;2022-11-15T09:05:46;12.10;99.90
7846;DHT22;3968;51.424;6.788;2022-11-15T09:08:11;12.10;99.90
7846;DHT22;3968;51.424;6.788;2022-11-15T09:10:38;12.10;99.90
7846;DHT22;3968;51.424;6.788;2022-11-15T09:13:04;12.10;99.90
7846;DHT22;3968;51.424;6.788;2022-11-15T09:15:29;12.10;99.90
7846;DHT22;3968;51.424;6.788;2022-11-15T09:17:58;12.20;99.90
7846;DHT22;3968;51.424;6.788;2022-11-15T09:20:24;12.20;99.90
7846;DHT22;3968;51.424;6.788;2022-11-15T09:22:50;12.30;99.90
7846;DHT22;3968;51.424;6.788;2022-11-15T09:25:15;12.40;99.90
7846;DHT22;3968;51.424;6.788;2022-11-15T09:27:41;12.50;99.90
7846;DHT22;3968;51.424;6.788;2022-11-15T09:30:07;12.50;99.90
7846;DHT22;3968;51.424;6.788;2022-11-15T09:32:33;12.60;99.90
7846;DHT22;3968;51.424;6.788;2022-11-15T09:34:58;12.50;99.90
7846;DHT22;3968;51.424;6.788;2022-11-15T09:37:24;12.50;99.90
7846;DHT22;3968;51.424;6.788;2022-11-15T09:39:49;12.50;99.90
7846;DHT22;3968;51.424;6.788;2022-11-15T09:50:48;12.30;99.90
7846;DHT22;3968;51.424;6.788;2022-11-15T09:53:22;12.30;99.90
7846;DHT22;3968;51.424;6.788;2022-11-15T09:56:05;12.20;99.90
7846;DHT22;3968;51.424;6.788;2022-11-15T10:04:44;12.20;99.90
7846;DHT22;3968;51.424;6.788;2022-11-15T10:07:23;12.20;99.90
7846;DHT22;3968;51.424;6.788;2022-11-15T10:09:55;12.20;99.90
7846;DHT22;3968;51.424;6.788;2022-11-15T10:12:23;12.20;99.90
7846;DHT22;3968;51.424;6.788;2022-11-15T10:14:58;12.20;99.90
7846;DHT22;3968;51.424;6.788;2022-11-15T10:17:46;12.20;99.90
7846;DHT22;3968;51.424;6.788;2022-11-15T10:20:25;12.20;99.90
7846;DHT22;3968;51.424;6.788;2022-11-15T10:22:55;12.20;99.90
7846;DHT22;3968;51.424;6.788;2022-11-15T10:25:30;12.30;99.90
7846;DHT22;3968;51.424;6.788;2022-11-15T10:27:57;12.30;99.90
7846;DHT22;3968;51.424;6.788;2022-11-15T10:30:29;12.30;99.90
7846;DHT22;3968;51.424;6.788;2022-11-15T10:32:55;12.30;99.90
7846;DHT22;3968;51.424;6.788;2022-11-15T10:35:27;12.30;99.90
7846;DHT22;3968;51.424;6.788;2022-11-15T10:38:07;12.30;99.90
7846;DHT22;3968;51.424;6.788;2022-11-15T10:40:34;12.30;99.90
7846;DHT22;3968;51.424;6.788;2022-11-15T10:45:35;12.30;99.90
7846;DHT22;3968;51.424;6.788;2022-11-15T10:50:43;12.30;99.90
7846;DHT22;3968;51.424;6.788;2022-11-15T10:55:50;12.30;99.90
7846;DHT22;3968;51.424;6.788;2022-11-15T10:58:43;12.30;99.90
7846;DHT22;3968;51.424;6.788;2022-11-15T11:01:18;12.30;99.90
7846;DHT22;3968;51.424;6.788;2022-11-15T11:03:57;12.30;99.90
7846;DHT22;3968;51.424;6.788;2022-11-15T11:06:23;12.30;99.90
7846;DHT22;3968;51.424;6.788;2022-11-15T11:09:00;12.30;99.90
7846;DHT22;3968;51.424;6.788;2022-11-15T11:11:46;12.30;99.90
7846;DHT22;3968;51.424;6.788;2022-11-15T11:14:17;12.30;99.90
7846;DHT22;3968;51.424;6.788;2022-11-15T11:16:50;12.30;99.90
7846;DHT22;3968;51.424;6.788;2022-11-15T11:19:34;12.30;99.90
7846;DHT22;3968;51.424;6.788;2022-11-15T11:30:20;12.40;99.90
7846;DHT22;3968;51.424;6.788;2022-11-15T11:35:59;12.40;99.90
7846;DHT22;3968;51.424;6.788;2022-11-15T11:38:49;12.30;99.90
7846;DHT22;3968;51.424;6.788;2022-11-15T11:41:21;12.40;99.90
7846;DHT22;3968;51.424;6.788;2022-11-15T11:49:57;12.40;99.90
7846;DHT22;3968;51.424;6.788;2022-11-15T11:55:20;12.40;99.90
7846;DHT22;3968;51.424;6.788;2022-11-15T11:58:03;12.40;99.90
7846;DHT22;3968;51.424;6.788;2022-11-15T12:00:31;12.50;99.90
7846;DHT22;3968;51.424;6.788;2022-11-15T12:03:09;12.40;99.90
7846;DHT22;3968;51.424;6.788;2022-11-15T12:05:54;12.50;99.90
7846;DHT22;3968;51.424;6.788;2022-11-15T12:09:12;12.50;99.90
7846;DHT22;3968;51.424;6.788;2022-11-15T12:11:22;12.50;99.90
7846;DHT22;3968;51.424;6.788;2022-11-15T12:13:53;12.60;99.90
7846;DHT22;3968;51.424;6.788;2022-11-15T12:16:28;12.50;99.90
7846;DHT22;3968;51.424;6.788;2022-11-15T12:18:55;12.60;99.90
7846;DHT22;3968;51.424;6.788;2022-11-15T12:21:50;12.60;99.90
7846;DHT22;3968;51.424;6.788;2022-11-15T12:27:01;12.60;99.90
7846;DHT22;3968;51.424;6.788;2022-11-15T12:32:00;12.60;99.90
7846;DHT22;3968;51.424;6.788;2022-11-15T12:34:30;12.60;99.90
7846;DHT22;3968;51.424;6.788;2022-11-15T12:37:00;12.60;99.90
7846;DHT22;3968;51.424;6.788;2022-11-15T12:40:16;12.60;99.90
7846;DHT22;3968;51.424;6.788;2022-11-15T12:45:32;12.50;99.90
7846;DHT22;3968;51.424;6.788;2022-11-15T12:56:15;12.60;99.90
7846;DHT22;3968;51.424;6.788;2022-11-15T13:06:58;12.70;99.90
7846;DHT22;3968;51.424;6.788;2022-11-15T13:12:00;12.70;99.90
7846;DHT22;3968;51.424;6.788;2022-11-15T13:14:52;12.80;99.90
7846;DHT22;3968;51.424;6.788;2022-11-15T13:17:36;12.70;99.90
7846;DHT22;3968;51.424;6.788;2022-11-15T13:23:01;12.80;99.90
7846;DHT22;3968;51.424;6.788;2022-11-15T13:25:40;12.80;99.90
7846;DHT22;3968;51.424;6.788;2022-11-15T13:30:39;12.80;99.90
7846;DHT22;3968;51.424;6.788;2022-11-15T13:33:14;12.80;99.90
7846;DHT22;3968;51.424;6.788;2022-11-15T13:35:41;12.80;99.90
7846;DHT22;3968;51.424;6.788;2022-11-15T13:38:37;12.90;99.90
7846;DHT22;3968;51.424;6.788;2022-11-15T13:41:23;12.90;99.90
7846;DHT22;3968;51.424;6.788;2022-11-15T13:43:51;12.90;99.90
7846;DHT22;3968;51.424;6.788;2022-11-15T13:49:04;12.90;99.90
7846;DHT22;3968;51.424;6.788;2022-11-15T13:51:42;13.00;99.90
7846;DHT22;3968;51.424;6.788;2022-11-15T13:54:29;13.00;99.90
7846;DHT22;3968;51.424;6.788;2022-11-15T13:57:00;13.00;99.90
7846;DHT22;3968;51.424;6.788;2022-11-15T13:59:36;13.10;99.90
7846;DHT22;3968;51.424;6.788;2022-11-15T14:02:14;13.10;99.90
7846;DHT22;3968;51.424;6.788;2022-11-15T14:04:50;13.20;99.90
7846;DHT22;3968;51.424;6.788;2022-11-15T14:07:26;13.20;99.90
7846;DHT22;3968;51.424;6.788;2022-11-15T14:09:54;13.20;99.90
7846;DHT22;3968;51.424;6.788;2022-11-15T14:12:35;13.20;99.90
7846;DHT22;3968;51.424;6.788;2022-11-15T14:15:39;13.20;99.90
7846;DHT22;3968;51.424;6.788;2022-11-15T14:18:04;13.10;99.90
7846;DHT22;3968;51.424;6.788;2022-11-15T14:20:36;13.10;99.90
7846;DHT22;3968;51.424;6.788;2022-11-15T14:23:05;13.10;99.90
7846;DHT22;3968;51.424;6.788;2022-11-15T14:25:32;13.10;99.90
7846;DHT22;3968;51.424;6.788;2022-11-15T14:28:27;13.20;99.90
7846;DHT22;3968;51.424;6.788;2022-11-15T14:30:56;13.20;99.90
7846;DHT22;3968;51.424;6.788;2022-11-15T14:33:30;13.20;99.90
7846;DHT22;3968;51.424;6.788;2022-11-15T14:36:03;13.20;99.90
7846;DHT22;3968;51.424;6.788;2022-11-15T14:38:29;13.20;99.90
7846;DHT22;3968;51.424;6.788;2022-11-15T14:40:55;13.10;99.90
7846;DHT22;3968;51.424;6.788;2022-11-15T14:43:22;13.00;99.90
7846;DHT22;3968;51.424;6.788;2022-11-15T14:45:47;13.00;99.90
7846;DHT22;3968;51.424;6.788;2022-11-15T14:48:13;13.00;99.90
7846;DHT22;3968;51.424;6.788;2022-11-15T14:50:39;12.90;99.90
7846;DHT22;3968;51.424;6.788;2022-11-15T14:53:05;13.00;99.90
7846;DHT22;3968;51.424;6.788;2022-11-15T14:55:35;12.90;99.90
7846;DHT22;3968;51.424;6.788;2022-11-15T14:58:05;12.90;99.90
7846;DHT22;3968;51.424;6.788;2022-11-15T15:00:34;12.90;99.90
7846;DHT22;3968;51.424;6.788;2022-11-15T15:03:00;13.00;99.90
7846;DHT22;3968;51.424;6.788;2022-11-15T15:05:40;12.90;99.90
7846;DHT22;3968;51.424;6.788;2022-11-15T15:08:07;12.90;99.90
7846;DHT22;3968;51.424;6.788;2022-11-15T15:10:51;12.90;99.90
7846;DHT22;3968;51.424;6.788;2022-11-15T15:15:42;12.90;99.90
7846;DHT22;3968;51.424;6.788;2022-11-15T15:18:08;13.00;99.90
7846;DHT22;3968;51.424;6.788;2022-11-15T15:20:39;13.00;99.90
7846;DHT22;3968;51.424;6.788;2022-11-15T15:23:09;13.10;99.90
7846;DHT22;3968;51.424;6.788;2022-11-15T15:25:39;13.10;99.90
7846;DHT22;3968;51.424;6.788;2022-11-15T15:28:05;13.00;99.90
7846;DHT22;3968;51.424;6.788;2022-11-15T15:30:31;13.00;99.90
7846;DHT22;3968;51.424;6.788;2022-11-15T15:32:57;13.00;99.90
7846;DHT22;3968;51.424;6.788;2022-11-15T15:35:22;12.90;99.90
7846;DHT22;3968;51.424;6.788;2022-11-15T15:37:49;13.00;99.90
7846;DHT22;3968;51.424;6.788;2022-11-15T15:40:22;12.90;99.90
7846;DHT22;3968;51.424;6.788;2022-11-15T15:42:49;12.90;99.90
7846;DHT22;3968;51.424;6.788;2022-11-15T15:45:15;12.90;99.90
7846;DHT22;3968;51.424;6.788;2022-11-15T15:47:41;12.90;99.90
7846;DHT22;3968;51.424;6.788;2022-11-15T15:52:55;13.00;99.90
7846;DHT22;3968;51.424;6.788;2022-11-15T15:55:21;13.00;99.90
7846;DHT22;3968;51.424;6.788;2022-11-15T15:57:47;12.90;99.90
7846;DHT22;3968;51.424;6.788;2022-11-15T16:00:13;12.90;99.90
7846;DHT22;3968;51.424;6.788;2022-11-15T16:02:40;12.80;99.90
7846;DHT22;3968;51.424;6.788;2022-11-15T16:05:06;12.80;99.90
7846;DHT22;3968;51.424;6.788;2022-11-15T16:07:32;12.80;99.90
7846;DHT22;3968;51.424;6.788;2022-11-15T16:09:58;12.80;99.90
7846;DHT22;3968;51.424;6.788;2022-11-15T16:12:33;12.80;99.90
7846;DHT22;3968;51.424;6.788;2022-11-15T16:15:00;12.70;99.90
7846;DHT22;3968;51.424;6.788;2022-11-15T16:17:38;12.80;99.90
7846;DHT22;3968;51.424;6.788;2022-11-15T16:20:05;12.70;99.90
7846;DHT22;3968;51.424;6.788;2022-11-15T16:22:31;12.70;99.90
7846;DHT22;3968;51.424;6.788;2022-11-15T16:24:57;12.70;99.90
7846;DHT22;3968;51.424;6.788;2022-11-15T16:27:23;12.70;99.90
7846;DHT22;3968;51.424;6.788;2022-11-15T16:29:49;12.70;99.90
7846;DHT22;3968;51.424;6.788;2022-11-15T16:32:15;12.70;99.90
7846;DHT22;3968;51.424;6.788;2022-11-15T16:34:40;12.70;99.90
7846;DHT22;3968;51.424;6.788;2022-11-15T16:37:23;12.80;99.90
7846;DHT22;3968;51.424;6.788;2022-11-15T16:39:49;12.80;99.90
7846;DHT22;3968;51.424;6.788;2022-11-15T16:42:14;12.80;99.90
7846;DHT22;3968;51.424;6.788;2022-11-15T16:44:40;12.80;99.90
7846;DHT22;3968;51.424;6.788;2022-11-15T16:47:15;12.80;99.90
7846;DHT22;3968;51.424;6.788;2022-11-15T16:49:42;12.80;99.90
7846;DHT22;3968;51.424;6.788;2022-11-15T16:52:09;12.80;99.90
7846;DHT22;3968;51.424;6.788;2022-11-15T16:54:34;12.80;99.90
7846;DHT22;3968;51.424;6.788;2022-11-15T16:57:00;12.80;99.90
7846;DHT22;3968;51.424;6.788;2022-11-15T16:59:26;12.80;99.90
7846;DHT22;3968;51.424;6.788;2022-11-15T17:01:51;12.80;99.90
7846;DHT22;3968;51.424;6.788;2022-11-15T17:04:18;12.80;99.90
7846;DHT22;3968;51.424;6.788;2022-11-15T17:06:46;12.80;99.90
7846;DHT22;3968;51.424;6.788;2022-11-15T17:09:14;12.80;99.90
7846;DHT22;3968;51.424;6.788;2022-11-15T17:11:41;12.90;99.90
7846;DHT22;3968;51.424;6.788;2022-11-15T17:14:07;12.90;99.90
7846;DHT22;3968;51.424;6.788;2022-11-15T17:16:33;12.90;99.90
7846;DHT22;3968;51.424;6.788;2022-11-15T17:19:00;12.90;99.90
7846;DHT22;3968;51.424;6.788;2022-11-15T17:21:26;12.90;99.90
7846;DHT22;3968;51.424;6.788;2022-11-15T17:23:53;12.90;99.90
7846;DHT22;3968;51.424;6.788;2022-11-15T17:26:19;12.90;99.90
7846;DHT22;3968;51.424;6.788;2022-11-15T17:28:45;12.90;99.90
7846;DHT22;3968;51.424;6.788;2022-11-15T17:31:13;12.90;99.90
7846;DHT22;3968;51.424;6.788;2022-11-15T17:33:39;12.90;99.90
7846;DHT22;3968;51.424;6.788;2022-11-15T17:36:08;12.90;99.90
7846;DHT22;3968;51.424;6.788;2022-11-15T17:38:34;13.00;99.90
7846;DHT22;3968;51.424;6.788;2022-11-15T17:43:30;12.90;99.90
7846;DHT22;3968;51.424;6.788;2022-11-15T17:45:57;12.90;99.90
7846;DHT22;3968;51.424;6.788;2022-11-15T17:48:22;12.90;99.90
7846;DHT22;3968;51.424;6.788;2022-11-15T17:51:05;12.90;99.90
7846;DHT22;3968;51.424;6.788;2022-11-15T17:53:35;13.00;99.90
7846;DHT22;3968;51.424;6.788;2022-11-15T17:56:10;13.00;99.90
7846;DHT22;3968;51.424;6.788;2022-11-15T17:58:36;13.00;99.90
7846;DHT22;3968;51.424;6.788;2022-11-15T18:01:17;13.00;99.90
7846;DHT22;3968;51.424;6.788;2022-11-15T18:03:43;13.00;99.90
7846;DHT22;3968;51.424;6.788;2022-11-15T18:06:09;13.10;99.90
7846;DHT22;3968;51.424;6.788;2022-11-15T18:08:36;13.00;99.90
7846;DHT22;3968;51.424;6.788;2022-11-15T18:11:10;13.10;99.90
7846;DHT22;3968;51.424;6.788;2022-11-15T18:13:38;13.10;99.90
7846;DHT22;3968;51.424;6.788;2022-11-15T18:16:06;13.10;99.90
7846;DHT22;3968;51.424;6.788;2022-11-15T18:18:34;13.10;99.90
7846;DHT22;3968;51.424;6.788;2022-11-15T18:21:06;13.10;99.90
7846;DHT22;3968;51.424;6.788;2022-11-15T18:23:32;13.10;99.90